Avondale, Louisiana
Current Conditions -  °F | °C
As of 12:53 PM on Friday 28 Nov 2014 (Local Time) from KMSY Reporting Station
Few Clouds Few Clouds  
Wind Chill: 15°   Ceiling: Unl
Heat Index: 15°   Visibility: 10mi
Dew Point:   Wind: 3mph
Humidity: 44%   Direction: 110°ESE
Pressure: 30.34"   Gusts: NA
Location:  29.9137°N, 90.2078°W
Report Text: KMSY 281853Z 11003KT 10SM FEW010 15/03 A3034 RMK AO2 SLP277 FU FEW010 T01500028
Loading
Personal Weather Stations






























Interactive Weather Map New forecast layout! Learn more

10-Day Weather Forecast

Advertisements
Track Severe Weather on mobile